Time;durP1;ratioP1;P1;durP2;ratioP2;P2;SDS_P1;SDS_P2;PMS_P1;PMS_P2;Temp;Humidity;BMP_temperature;BMP_pressure;BME280_temperature;BME280_humidity;BME280_pressure;Samples;Min_cycle;Max_cycle;Signal;HPM_P1;HPM_P2
2022/09/04 00:04:24;;;;;;;1.92;1.08;;;17.50;99.90;;;;;;12471244;28;20056;-39
2022/09/04 00:10:48;;;;;;;2.28;1.20;;;17.20;99.90;;;;;;12468618;28;20054;-38
2022/09/04 00:17:02;;;;;;;3.00;1.27;;;16.90;99.90;;;;;;12467775;28;20114;-39
2022/09/04 00:23:24;;;;;;;;;;;16.80;99.90;;;;;;12454893;28;20050;-39
2022/09/04 00:30:00;;;;;;;4.40;1.40;;;16.80;99.90;;;;;;12474488;28;19921;-41
2022/09/04 00:36:04;;;;;;;2.90;1.15;;;16.70;99.90;;;;;;12455835;28;20318;-38
2022/09/04 00:42:50;;;;;;;6.40;1.27;;;16.80;99.90;;;;;;12483212;28;20061;-38
2022/09/04 00:49:10;;;;;;;4.20;1.33;;;16.80;99.90;;;;;;12482552;28;20133;-38
2022/09/04 00:55:21;;;;;;;2.72;1.20;;;17.00;99.90;;;;;;12491470;28;20429;-39
2022/09/04 01:01:27;;;;;;;4.25;1.20;;;17.00;99.90;;;;;;12490487;28;20052;-38
2022/09/04 01:07:48;;;;;;;6.28;1.30;;;17.00;99.90;;;;;;12481093;28;20046;-39
2022/09/04 01:13:50;;;;;;;8.40;1.40;;;17.00;99.90;;;;;;12482676;28;20091;-39
2022/09/04 01:20:08;;;;;;;2.75;1.25;;;16.90;99.90;;;;;;12484187;28;20042;-38
2022/09/04 01:26:21;;;;;;;4.25;1.20;;;16.90;99.90;;;;;;12488041;28;20592;-38
2022/09/04 01:32:47;;;;;;;4.63;1.25;;;16.80;99.90;;;;;;12483792;28;20474;-38
2022/09/04 01:38:56;;;;;;;2.63;1.10;;;16.80;99.90;;;;;;12485709;28;20171;-40
2022/09/04 01:44:58;;;;;;;3.30;1.10;;;17.00;99.90;;;;;;12485653;28;20119;-40
2022/09/04 01:51:11;;;;;;;3.10;1.25;;;17.00;99.90;;;;;;12487367;28;20186;-40
2022/09/04 01:57:58;;;;;;;3.03;1.25;;;17.10;99.90;;;;;;12456661;28;20124;-40
2022/09/04 02:04:40;;;;;;;2.85;1.35;;;17.00;99.90;;;;;;12477664;28;20053;-39
2022/09/04 02:10:47;;;;;;;2.90;1.10;;;17.00;99.90;;;;;;12486981;28;20132;-38
2022/09/04 02:17:08;;;;;;;2.63;1.27;;;17.00;99.90;;;;;;12476584;28;20126;-38
2022/09/04 02:23:51;;;;;;;5.20;1.35;;;16.80;99.90;;;;;;12481458;28;20053;-38
2022/09/04 02:30:07;;;;;;;2.03;1.05;;;16.80;99.90;;;;;;12428328;28;20088;-39
2022/09/04 02:36:29;;;;;;;2.97;1.20;;;16.70;99.90;;;;;;12463250;28;20111;-39
2022/09/04 02:42:50;;;;;;;3.22;1.10;;;16.50;99.90;;;;;;12473826;28;20080;-38
2022/09/04 02:49:12;;;;;;;4.03;1.08;;;16.40;99.90;;;;;;12478351;28;20124;-38
2022/09/04 02:55:47;;;;;;;9.02;1.55;;;16.30;99.90;;;;;;12475644;28;20045;-38
2022/09/04 03:01:59;;;;;;;3.08;1.52;;;16.30;99.90;;;;;;12481512;28;20941;-39
2022/09/04 03:08:11;;;;;;;3.50;1.38;;;16.40;99.90;;;;;;12478857;28;20080;-38
2022/09/04 03:14:37;;;;;;;5.50;1.75;;;16.20;99.90;;;;;;12464441;28;20061;-38
2022/09/04 03:20:55;;;;;;;8.98;1.70;;;16.30;99.90;;;;;;12472965;28;20500;-39
2022/09/04 03:27:02;;;;;;;4.72;1.27;;;16.40;99.90;;;;;;12475492;28;20049;-38
2022/09/04 03:33:20;;;;;;;2.70;1.30;;;16.60;99.90;;;;;;12475421;28;20176;-38
2022/09/04 03:39:35;;;;;;;3.55;1.42;;;16.50;99.90;;;;;;12473314;28;20070;-38
2022/09/04 03:46:25;;;;;;;6.60;1.40;;;16.40;99.90;;;;;;12485460;28;20486;-39
2022/09/04 03:53:04;;;;;;;3.05;1.50;;;16.20;99.90;;;;;;12468759;28;20045;-41
2022/09/04 03:59:28;;;;;;;3.20;1.20;;;16.00;99.90;;;;;;12471170;28;20191;-38
2022/09/04 04:05:52;;;;;;;4.13;1.30;;;16.00;99.90;;;;;;12466720;28;20397;-38
2022/09/04 04:12:03;;;;;;;4.50;1.65;;;15.90;99.90;;;;;;12465392;28;20196;-38
2022/09/04 04:18:30;;;;;;;2.40;1.27;;;16.00;99.90;;;;;;12488256;28;20087;-39
2022/09/04 04:25:00;;;;;;;4.32;1.30;;;16.00;99.90;;;;;;12485621;28;20552;-39
2022/09/04 04:31:19;;;;;;;3.03;1.40;;;16.00;99.90;;;;;;12484091;28;20180;-39
2022/09/04 04:37:49;;;;;;;7.22;1.50;;;16.20;99.90;;;;;;12488043;28;20258;-38
2022/09/04 04:44:11;;;;;;;4.60;1.30;;;16.00;99.90;;;;;;12475374;28;20073;-38
2022/09/04 04:50:26;;;;;;;3.10;1.45;;;15.90;99.90;;;;;;12480369;28;20139;-38
2022/09/04 04:56:45;;;;;;;3.60;1.30;;;15.70;99.90;;;;;;12476779;28;20382;-39
2022/09/04 05:03:31;;;;;;;2.33;1.33;;;15.50;99.90;;;;;;12483043;28;20084;-38
2022/09/04 05:09:52;;;;;;;3.30;1.20;;;15.60;99.90;;;;;;12488306;28;20094;-39
2022/09/04 05:16:28;;;;;;;4.78;1.67;;;15.60;99.90;;;;;;12485934;28;20057;-39
2022/09/04 05:22:42;;;;;;;3.70;1.50;;;15.40;99.90;;;;;;12474297;28;20060;-38
2022/09/04 05:29:11;;;;;;;5.47;1.40;;;15.50;99.90;;;;;;12481307;28;20061;-38
2022/09/04 05:35:35;;;;;;;3.05;1.60;;;15.50;99.90;;;;;;12469107;28;20529;-39
2022/09/04 05:41:59;;;;;;;2.80;1.42;;;15.50;99.90;;;;;;12475412;28;20053;-38
2022/09/04 05:48:12;;;;;;;5.03;1.77;;;15.50;99.90;;;;;;12484387;28;20409;-38
2022/09/04 05:54:29;;;;;;;3.75;1.50;;;15.40;99.90;;;;;;12476856;28;20045;-39
2022/09/04 06:00:50;;;;;;;3.58;1.50;;;15.40;99.90;;;;;;12483855;28;20124;-38
2022/09/04 06:07:13;;;;;;;4.50;1.90;;;15.40;99.90;;;;;;12482803;28;20136;-38
2022/09/04 06:13:49;;;;;;;5.25;1.58;;;15.30;99.90;;;;;;12486876;28;20370;-38
2022/09/04 06:20:28;;;;;;;6.10;1.60;;;15.30;99.90;;;;;;12472651;28;20045;-38
2022/09/04 06:26:33;;;;;;;8.55;1.90;;;15.30;99.90;;;;;;12480275;28;20823;-39
2022/09/04 06:32:50;;;;;;;6.50;1.50;;;15.40;99.90;;;;;;12480611;28;20048;-38
2022/09/04 06:39:01;;;;;;;5.95;1.52;;;15.50;99.90;;;;;;12475674;28;20128;-39
2022/09/04 06:45:42;;;;;;;4.28;1.90;;;15.60;99.90;;;;;;12480198;28;20049;-38
2022/09/04 06:52:26;;;;;;;3.17;1.60;;;15.70;99.90;;;;;;12477154;28;20072;-39
2022/09/04 06:58:37;;;;;;;3.43;1.60;;;15.90;99.90;;;;;;12483910;28;20060;-38
2022/09/04 07:04:44;;;;;;;8.15;1.70;;;16.10;99.90;;;;;;12479399;28;20069;-39
2022/09/04 07:11:01;;;;;;;7.47;1.85;;;16.30;99.90;;;;;;12483605;28;20163;-38
2022/09/04 07:17:09;;;;;;;2.20;1.60;;;16.50;99.90;;;;;;12479299;28;20049;-39
2022/09/04 07:23:53;;;;;;;3.38;1.60;;;16.70;99.90;;;;;;12482189;28;20057;-39
2022/09/04 07:30:08;;;;;;;4.88;1.70;;;16.80;99.90;;;;;;12477803;28;20506;-39
2022/09/04 07:36:21;;;;;;;5.45;1.50;;;16.90;99.90;;;;;;12479664;28;20053;-39
2022/09/04 07:42:42;;;;;;;4.10;1.63;;;17.10;99.90;;;;;;12468115;28;20042;-39
2022/09/04 07:49:08;;;;;;;5.55;1.58;;;17.20;99.90;;;;;;12466643;28;20485;-39
2022/09/04 07:55:39;;;;;;;3.88;1.70;;;17.60;99.90;;;;;;12488394;28;20064;-40
2022/09/04 08:02:23;;;;;;;4.38;1.65;;;17.90;99.90;;;;;;12491230;28;20119;-38
2022/09/04 08:09:03;;;;;;;3.40;1.60;;;18.30;99.90;;;;;;12445910;28;20088;-38
2022/09/04 08:15:21;;;;;;;4.75;1.50;;;18.60;99.90;;;;;;12495901;28;20120;-39
2022/09/04 08:21:34;;;;;;;3.03;1.20;;;18.70;99.90;;;;;;12496019;28;20133;-39
2022/09/04 08:27:46;;;;;;;3.90;1.77;;;18.90;99.90;;;;;;12493871;28;20041;-39
2022/09/04 08:33:58;;;;;;;4.97;1.50;;;19.30;99.90;;;;;;12494486;28;20124;-39
2022/09/04 08:40:10;;;;;;;4.30;1.27;;;19.60;99.90;;;;;;12494405;28;20096;-39
2022/09/04 08:46:24;;;;;;;4.68;1.50;;;19.80;99.90;;;;;;12489685;28;20408;-40
2022/09/04 08:52:32;;;;;;;2.97;1.45;;;20.00;99.90;;;;;;12486728;28;20045;-39
2022/09/04 08:59:22;;;;;;;2.92;1.73;;;20.20;99.90;;;;;;12489901;28;20103;-39
2022/09/04 09:05:53;;;;;;;3.83;1.40;;;20.50;99.90;;;;;;12458186;28;20087;-40
2022/09/04 09:12:14;;;;;;;7.35;2.22;;;20.70;99.90;;;;;;12487615;28;20413;-39
2022/09/04 09:18:55;;;;;;;3.70;1.52;;;20.90;99.90;;;;;;12485273;28;20042;-39
2022/09/04 09:25:20;;;;;;;3.40;1.48;;;21.00;99.90;;;;;;12482378;28;20523;-39
2022/09/04 09:31:55;;;;;;;2.92;1.40;;;21.50;99.90;;;;;;12486070;28;20099;-40
2022/09/04 09:38:36;;;;;;;5.90;1.58;;;21.80;99.90;;;;;;12482875;28;20050;-40
2022/09/04 09:44:54;;;;;;;5.72;1.70;;;22.10;99.90;;;;;;12481331;28;20135;-40
2022/09/04 09:51:27;;;;;;;2.47;1.42;;;22.10;99.90;;;;;;12481583;28;20135;-39
2022/09/04 09:58:07;;;;;;;2.78;1.52;;;22.40;99.90;;;;;;12481945;28;20045;-40
2022/09/04 10:04:15;;;;;;;4.72;1.23;;;22.80;99.90;;;;;;12475235;28;20720;-39
2022/09/04 10:10:41;;;;;;;3.38;1.20;;;23.20;99.90;;;;;;12478476;28;20087;-40
2022/09/04 10:17:04;;;;;;;3.22;1.30;;;23.50;99.90;;;;;;12480482;28;20045;-40
2022/09/04 10:23:31;;;;;;;2.43;1.00;;;23.80;99.90;;;;;;12479415;28;20110;-39
2022/09/04 10:30:02;;;;;;;2.55;0.98;;;23.60;99.90;;;;;;12480690;28;20665;-42
2022/09/04 10:36:19;;;;;;;6.25;1.05;;;23.80;99.90;;;;;;12484986;28;20485;-40
2022/09/04 10:42:42;;;;;;;1.88;0.90;;;23.50;99.90;;;;;;12479008;28;20103;-39
2022/09/04 10:48:58;;;;;;;1.52;0.80;;;23.70;99.90;;;;;;12468713;28;20073;-39
2022/09/04 10:55:22;;;;;;;2.30;0.90;;;24.10;99.90;;;;;;12478583;28;20478;-40
2022/09/04 11:01:46;;;;;;;3.20;0.90;;;24.50;99.90;;;;;;12482147;28;20144;-41
2022/09/04 11:08:19;;;;;;;1.20;0.70;;;25.10;99.90;;;;;;12471021;28;20050;-40
2022/09/04 11:14:37;;;;;;;0.95;0.60;;;25.50;99.90;;;;;;12445253;28;20038;-39
2022/09/04 11:21:02;;;;;;;1.48;0.60;;;25.60;99.90;;;;;;12462734;28;20037;-41
2022/09/04 11:27:29;;;;;;;3.08;0.73;;;25.70;99.90;;;;;;12476519;28;20064;-39
2022/09/04 11:33:37;;;;;;;1.10;0.70;;;25.80;99.90;;;;;;12466566;28;20128;-39
2022/09/04 11:39:54;;;;;;;2.28;0.70;;;26.00;99.90;;;;;;12480054;28;20041;-39
2022/09/04 11:46:33;;;;;;;0.95;0.52;;;26.30;99.90;;;;;;12480090;28;20404;-40
2022/09/04 11:52:54;;;;;;;1.73;0.70;;;26.50;99.90;;;;;;12471940;28;20045;-40
2022/09/04 11:59:22;;;;;;;0.98;0.70;;;26.70;99.90;;;;;;12474124;28;20058;-40
2022/09/04 12:05:39;;;;;;;0.60;0.50;;;26.90;99.90;;;;;;12457843;28;20058;-40
2022/09/04 12:11:55;;;;;;;0.90;0.60;;;26.80;99.90;;;;;;12478848;28;20053;-41
2022/09/04 12:18:21;;;;;;;1.70;0.73;;;26.50;99.90;;;;;;12460061;28;20137;-39
2022/09/04 12:24:48;;;;;;;1.15;0.45;;;26.40;99.90;;;;;;12474991;28;20279;-39
2022/09/04 12:31:13;;;;;;;2.63;0.80;;;26.40;99.90;;;;;;12474284;28;20451;-40
2022/09/04 12:37:49;;;;;;;1.13;0.55;;;26.70;99.90;;;;;;12475873;28;20144;-40
2022/09/04 12:44:11;;;;;;;1.27;0.68;;;26.80;99.90;;;;;;12470989;28;20489;-39
2022/09/04 12:50:31;;;;;;;2.22;0.63;;;27.30;99.90;;;;;;12488486;28;20477;-39
2022/09/04 12:56:41;;;;;;;2.35;0.60;;;27.10;99.90;;;;;;12479956;28;20381;-40
2022/09/04 13:03:13;;;;;;;3.63;0.70;;;27.00;99.90;;;;;;12485960;28;20479;-42
2022/09/04 13:09:14;;;;;;;1.15;0.65;;;26.80;99.90;;;;;;12479052;28;20131;-40
2022/09/04 13:15:42;;;;;;;3.05;0.80;;;26.90;99.90;;;;;;12478592;28;20041;-39
2022/09/04 13:22:11;;;;;;;3.15;0.70;;;26.70;99.90;;;;;;12471907;28;20049;-39
2022/09/04 13:28:27;;;;;;;1.15;0.60;;;27.40;99.90;;;;;;12484549;28;20056;-39
2022/09/04 13:35:00;;;;;;;1.60;0.73;;;27.10;99.90;;;;;;12473286;28;20049;-40
2022/09/04 13:41:15;;;;;;;;;;;27.50;99.90;;;;;;12484600;28;20054;-39
2022/09/04 13:47:21;;;;;;;1.20;0.68;;;27.80;99.90;;;;;;12485796;28;19925;-39
2022/09/04 13:54:01;;;;;;;1.02;0.50;;;27.80;99.90;;;;;;12475595;28;20046;-40
2022/09/04 14:00:07;;;;;;;0.60;0.47;;;27.50;99.90;;;;;;12485519;28;20038;-40
2022/09/04 14:06:13;;;;;;;2.03;0.80;;;27.40;99.90;;;;;;12482378;28;20144;-39
2022/09/04 14:12:28;;;;;;;2.17;0.95;;;27.30;99.90;;;;;;12482423;28;20054;-40
2022/09/04 14:18:48;;;;;;;1.23;0.77;;;27.00;99.90;;;;;;12483640;28;20473;-40
2022/09/04 14:25:21;;;;;;;1.42;0.70;;;26.80;99.90;;;;;;12476387;28;20512;-39
2022/09/04 14:31:34;;;;;;;3.15;0.70;;;26.50;99.90;;;;;;12483128;28;20069;-39
2022/09/04 14:37:49;;;;;;;2.60;1.02;;;26.60;99.90;;;;;;12478687;28;20049;-39
2022/09/04 14:44:02;;;;;;;2.30;0.68;;;27.10;99.90;;;;;;12479680;28;20041;-39
2022/09/04 14:50:08;;;;;;;2.25;0.70;;;26.90;99.90;;;;;;12462600;28;20046;-39
2022/09/04 14:56:10;;;;;;;1.40;0.65;;;26.80;99.90;;;;;;12465057;28;20049;-40
2022/09/04 15:02:22;;;;;;;2.90;0.80;;;27.00;99.90;;;;;;12477058;28;20064;-39
2022/09/04 15:08:32;;;;;;;2.67;0.90;;;26.40;99.90;;;;;;12453764;28;20447;-40
2022/09/04 15:14:46;;;;;;;4.25;0.85;;;26.00;99.90;;;;;;12477388;28;20128;-39
2022/09/04 15:21:26;;;;;;;1.88;0.93;;;25.70;99.90;;;;;;12482389;28;20374;-40
2022/09/04 15:27:48;;;;;;;3.28;0.90;;;25.70;99.90;;;;;;12469895;28;20192;-39
2022/09/04 15:34:09;;;;;;;2.53;1.00;;;25.90;99.90;;;;;;12474775;28;20095;-39
2022/09/04 15:40:29;;;;;;;1.70;0.98;;;25.90;99.90;;;;;;12477410;28;20079;-40
2022/09/04 15:46:50;;;;;;;2.67;1.00;;;25.80;99.90;;;;;;12475802;28;20136;-40
2022/09/04 15:52:56;;;;;;;4.30;1.05;;;25.40;99.90;;;;;;12478350;28;20179;-39
2022/09/04 15:59:14;;;;;;;2.40;0.80;;;25.10;99.90;;;;;;12468615;28;20056;-40
2022/09/04 16:05:50;;;;;;;1.52;0.90;;;25.00;99.90;;;;;;12473286;28;20041;-40
2022/09/04 16:12:04;;;;;;;3.88;1.10;;;25.20;99.90;;;;;;12480097;28;20136;-39
2022/09/04 16:18:27;;;;;;;3.08;1.25;;;25.30;99.90;;;;;;12491871;28;20045;-39
2022/09/04 16:24:38;;;;;;;2.17;1.00;;;25.20;99.90;;;;;;12470225;28;20091;-39
2022/09/04 16:30:43;;;;;;;2.03;1.10;;;25.20;99.90;;;;;;12477973;28;20053;-40
2022/09/04 16:37:00;;;;;;;3.25;1.10;;;25.10;99.90;;;;;;12486492;28;20443;-40
2022/09/04 16:43:26;;;;;;;1.48;0.90;;;25.00;99.90;;;;;;12485233;28;20052;-40
2022/09/04 16:49:47;;;;;;;4.53;1.55;;;24.90;99.90;;;;;;12488159;28;20045;-39
2022/09/04 16:56:00;;;;;;;3.92;1.20;;;24.70;99.90;;;;;;12481813;28;20046;-39
2022/09/04 17:02:25;;;;;;;3.03;1.40;;;24.60;99.90;;;;;;12477734;28;20041;-40
2022/09/04 17:09:18;;;;;;;3.38;1.05;;;24.40;99.90;;;;;;12479978;28;20046;-39
2022/09/04 17:15:28;;;;;;;3.22;1.25;;;24.30;99.90;;;;;;12448587;28;20048;-40
2022/09/04 17:28:34;;;;;;;1.90;1.08;;;24.10;99.90;;;;;;12479043;28;20114;-40
2022/09/04 17:35:28;;;;;;;3.28;1.27;;;23.90;99.90;;;;;;12479313;28;20049;-40
2022/09/04 17:42:13;;;;;;;5.15;1.33;;;23.90;99.90;;;;;;12481466;28;20046;-39
2022/09/04 17:48:23;;;;;;;2.65;1.25;;;23.70;99.90;;;;;;12476244;28;20521;-40
2022/09/04 17:54:29;;;;;;;3.05;2.05;;;23.60;99.90;;;;;;12453611;28;20065;-40
2022/09/04 18:00:53;;;;;;;2.97;1.45;;;23.50;99.90;;;;;;12486463;28;20084;-40
2022/09/04 18:07:22;;;;;;;2.90;1.50;;;23.50;99.90;;;;;;12484361;28;20415;-39
2022/09/04 18:13:51;;;;;;;5.38;1.73;;;23.40;99.90;;;;;;12479671;28;20042;-39
2022/09/04 18:20:22;;;;;;;7.22;1.70;;;23.30;99.90;;;;;;12482371;28;20061;-39
2022/09/04 18:26:29;;;;;;;5.38;1.67;;;23.20;99.90;;;;;;12480555;28;20463;-39
2022/09/04 18:32:54;;;;;;;3.80;2.03;;;23.20;99.90;;;;;;12480925;28;20510;-39
2022/09/04 18:39:43;;;;;;;4.22;1.80;;;23.10;99.90;;;;;;12472049;28;20060;-40
2022/09/04 18:45:55;;;;;;;5.82;1.90;;;23.00;99.90;;;;;;12476846;28;20053;-39
2022/09/04 18:52:44;;;;;;;5.00;1.80;;;22.90;99.90;;;;;;12475627;28;20087;-39
2022/09/04 18:58:55;;;;;;;7.70;1.65;;;22.80;99.90;;;;;;12464199;28;20061;-40
2022/09/04 19:05:00;;;;;;;4.03;2.13;;;22.80;99.90;;;;;;12484247;28;20045;-39
2022/09/04 19:11:13;;;;;;;5.63;1.95;;;22.70;99.90;;;;;;12484088;28;20041;-40
2022/09/04 19:17:29;;;;;;;5.90;2.30;;;22.70;99.90;;;;;;12482946;28;20041;-39
2022/09/04 19:23:33;;;;;;;5.38;2.00;;;22.50;99.90;;;;;;12479223;28;20884;-38
2022/09/04 19:29:55;;;;;;;4.68;2.15;;;22.50;99.90;;;;;;12473078;28;20098;-38
2022/09/04 19:36:37;;;;;;;3.15;2.05;;;22.50;99.90;;;;;;12464150;28;20497;-40
2022/09/04 19:42:45;;;;;;;4.63;2.00;;;22.40;99.90;;;;;;12480322;28;20049;-39
2022/09/04 19:49:08;;;;;;;6.20;1.98;;;22.30;99.90;;;;;;12480964;28;20455;-39
2022/09/04 19:55:54;;;;;;;5.23;2.30;;;22.30;99.90;;;;;;12468430;28;20041;-38
2022/09/04 20:01:57;;;;;;;4.85;2.22;;;22.20;99.90;;;;;;12477957;28;20136;-39
2022/09/04 20:08:08;;;;;;;6.63;2.28;;;22.10;99.90;;;;;;12468851;28;20049;-39
2022/09/04 20:14:36;;;;;;;4.75;2.25;;;22.00;99.90;;;;;;12468986;28;20117;-38
2022/09/04 20:21:14;;;;;;;4.10;2.10;;;21.90;99.90;;;;;;12470031;28;20042;-39
2022/09/04 20:27:23;;;;;;;4.82;2.08;;;21.90;99.90;;;;;;12459845;28;20508;-38
2022/09/04 20:33:33;;;;;;;5.82;2.65;;;21.90;99.90;;;;;;12472219;28;20118;-39
2022/09/04 20:39:42;;;;;;;6.10;2.03;;;21.80;99.90;;;;;;12481489;28;20531;-39
2022/09/04 20:46:04;;;;;;;4.72;2.33;;;21.80;99.90;;;;;;12475940;28;20084;-38
2022/09/04 20:52:35;;;;;;;7.05;2.50;;;21.80;99.90;;;;;;12479697;28;20532;-39
2022/09/04 20:59:20;;;;;;;7.18;2.35;;;21.70;99.90;;;;;;12478409;28;20467;-39
2022/09/04 21:06:09;;;;;;;4.38;2.35;;;21.60;99.90;;;;;;12489911;28;20144;-39
2022/09/04 21:12:22;;;;;;;4.97;2.00;;;21.60;99.90;;;;;;12485350;28;20076;-39
2022/09/04 21:18:44;;;;;;;3.35;2.17;;;21.50;99.90;;;;;;12489840;28;20045;-39
2022/09/04 21:25:21;;;;;;;7.15;2.30;;;21.60;99.90;;;;;;12483183;28;20053;-39
2022/09/04 21:31:38;;;;;;;7.38;2.28;;;21.40;99.90;;;;;;12487691;28;20592;-39
2022/09/04 21:37:57;;;;;;;3.95;2.40;;;21.30;99.90;;;;;;12487888;28;21898;-39
2022/09/04 21:44:23;;;;;;;5.40;2.60;;;21.30;99.90;;;;;;12485394;28;20099;-40
2022/09/04 21:50:44;;;;;;;5.05;2.60;;;21.20;99.90;;;;;;12486584;28;20397;-39
2022/09/04 21:56:52;;;;;;;4.43;2.70;;;21.20;99.90;;;;;;12485448;28;20052;-39
2022/09/04 22:03:33;;;;;;;7.85;2.30;;;21.00;99.90;;;;;;12474902;28;20362;-39
2022/09/04 22:09:59;;;;;;;5.63;2.70;;;20.90;99.90;;;;;;12463140;28;20060;-39
2022/09/04 22:16:40;;;;;;;6.82;2.30;;;20.90;99.90;;;;;;12477322;28;20163;-39
2022/09/04 22:23:06;;;;;;;5.03;2.30;;;20.80;99.90;;;;;;12480608;28;20075;-38
2022/09/04 22:29:45;;;;;;;5.80;2.33;;;20.80;99.90;;;;;;12480368;28;20049;-38
2022/09/04 22:36:12;;;;;;;4.95;2.80;;;20.60;99.90;;;;;;12473592;28;20409;-39
2022/09/04 22:42:35;;;;;;;8.75;2.67;;;20.60;99.90;;;;;;12475519;28;20041;-39
2022/09/04 22:48:48;;;;;;;4.63;1.83;;;20.70;99.90;;;;;;12477632;28;20136;-38
2022/09/04 22:55:32;;;;;;;6.22;2.30;;;20.60;99.90;;;;;;12473339;28;20148;-39
2022/09/04 23:02:31;;;;;;;6.03;2.40;;;20.60;99.90;;;;;;12478701;28;20452;-39
2022/09/04 23:09:23;;;;;;;3.25;2.10;;;20.70;99.90;;;;;;12462396;28;20053;-40
2022/09/04 23:16:17;;;;;;;4.78;2.10;;;20.80;99.90;;;;;;12479679;28;20409;-39
2022/09/04 23:23:05;;;;;;;6.68;2.20;;;20.70;99.90;;;;;;12457660;28;20045;-39
2022/09/04 23:29:43;;;;;;;6.22;2.00;;;20.60;99.90;;;;;;12471381;28;20393;-39
2022/09/04 23:36:08;;;;;;;5.05;2.40;;;20.70;99.90;;;;;;12478233;28;20054;-40
2022/09/04 23:42:29;;;;;;;3.65;1.95;;;20.70;99.90;;;;;;12461702;28;20543;-39
2022/09/04 23:49:18;;;;;;;3.35;1.85;;;20.70;99.90;;;;;;12463597;28;20046;-40
2022/09/04 23:55:39;;;;;;;4.80;2.60;;;20.60;99.90;;;;;;12440319;28;20183;-39
